Overview Statistics Trail Chart Weather Telemetry Raw packets
 

This is the latest recevied weather packets stored in our database for station/object xx2mm-12. If no packets are shown the sender has not sent any weather packets the latest 10 day(s).

<< 107 108 109 110 111 112 113 >>
Time Temp. Humidity Pressure Rain* Wind** Luminosity Snow
1777459227 -51.67° C 1% 65.1 hPa - - - -
1777459022 -51.67° C 1% 65.1 hPa - - - -
1777458925 18.89° C 99% 1005.7 hPa - - - -
1777458827 18.89° C 95% 1005.8 hPa - - - -
1777458730 -44.44° C 90% 65.1 hPa - - - -
1777458633 -44.44° C 88% 65.1 hPa - - - -
1777458535 -43.89° C 84% 65.1 hPa - - - -
1777458438 -43.89° C 82% 65.1 hPa - - - -
1777458341 -43.89° C 83% 65.1 hPa - - - -
1777458244 -43.89° C 84% 65.1 hPa - - - -
1777458147 -43.89° C 84% 65.1 hPa - - - -
1777458049 -43.89° C 85% 65.1 hPa - - - -
1777457951 -43.89° C 83% 65.1 hPa - - - -
1777457854 -43.89° C 87% 65.1 hPa - - - -
1777457758 -43.89° C 84% 65.1 hPa - - - -
1777457660 -43.89° C 85% 65.1 hPa - - - -
1777457563 -43.89° C 81% 65.1 hPa - - - -
1777457467 -43.89° C 79% 65.1 hPa - - - -
1777457370 -43.89° C 79% 65.1 hPa - - - -
1777457274 -43.89° C 75% 65.1 hPa - - - -
1777457178 -45.56° C 78% 65.1 hPa - - - -
1777457081 -51.67° C 1% 65.1 hPa - - - -
1777456984 -51.67° C 1% 65.1 hPa - - - -
1777456887 -51.67° C 1% 65.1 hPa - - - -
1777456790 -51.67° C 1% 65.1 hPa - - - -

* Rain since midnight (hover to see other rain measurements)
** Current wind speed in m/s (hover to see current wind gust speed)